Time;durP1;ratioP1;P1;durP2;ratioP2;P2;SDS_P1;SDS_P2;PMS_P1;PMS_P2;Temp;Humidity;BMP_temperature;BMP_pressure;BME280_temperature;BME280_humidity;BME280_pressure;Samples;Min_cycle;Max_cycle;Signal;HPM_P1;HPM_P2
2023/09/05 00:01:54;;;;;;;15.73;6.30;;;;;;;14.85;70.78;100619.97;5050303;28;20032;-66
2023/09/05 00:04:19;;;;;;;10.82;5.90;;;;;;;14.83;70.56;100619.25;5048907;28;20021;-69
2023/09/05 00:06:46;;;;;;;15.95;5.68;;;;;;;14.81;70.55;100621.22;5048794;28;20044;-68
2023/09/05 00:09:14;;;;;;;9.95;5.70;;;;;;;14.78;70.58;100614.25;5049109;28;20425;-67
2023/09/05 00:11:39;;;;;;;12.20;6.18;;;;;;;14.76;71.03;100619.78;5049594;28;20047;-65
2023/09/05 00:14:05;;;;;;;11.88;6.13;;;;;;;14.75;70.75;100623.47;5052267;28;20351;-65
2023/09/05 00:16:31;;;;;;;10.20;5.97;;;;;;;14.71;70.75;100613.06;5050794;28;20455;-66
2023/09/05 00:18:56;;;;;;;12.15;6.35;;;;;;;14.69;70.77;100613.16;5052031;28;20110;-65
2023/09/05 00:21:22;;;;;;;8.35;6.00;;;;;;;14.43;71.14;100578.53;5052523;28;20044;-65
2023/09/05 00:23:48;;;;;;;14.90;6.78;;;;;;;14.63;71.06;100619.09;5051045;28;20032;-65
2023/09/05 00:26:13;;;;;;;9.32;6.15;;;;;;;14.59;71.35;100610.44;5051994;28;20356;-66
2023/09/05 00:28:42;;;;;;;11.93;5.95;;;;;;;14.64;71.15;100626.19;5052071;28;20033;-64
2023/09/05 00:31:07;;;;;;;11.07;5.60;;;;;;;14.61;71.28;100631.84;5052205;28;20029;-65
2023/09/05 00:33:33;;;;;;;10.38;5.97;;;;;;;14.58;71.33;100622.16;5052234;28;20341;-65
2023/09/05 00:35:59;;;;;;;12.70;5.50;;;;;;;14.56;71.55;100623.28;5051677;28;20035;-65
2023/09/05 00:38:25;;;;;;;13.32;6.18;;;;;;;14.50;71.55;100624.66;5052247;28;20041;-65
2023/09/05 00:40:51;;;;;;;8.95;6.18;;;;;;;14.51;71.66;100634.44;5051410;28;20036;-65
2023/09/05 00:43:20;;;;;;;11.68;6.13;;;;;;;14.48;71.88;100622.13;5052994;28;20025;-70
2023/09/05 00:45:51;;;;;;;17.92;6.40;;;;;;;14.50;71.91;100625.53;5055839;28;20044;-65
2023/09/05 00:48:23;;;;;;;10.35;6.95;;;;;;;14.26;72.22;100590.72;5055050;28;20033;-68
2023/09/05 00:50:51;;;;;;;12.10;6.70;;;;;;;14.38;72.13;100618.47;5055931;28;20094;-64
2023/09/05 00:53:17;;;;;;;12.40;6.43;;;;;;;14.40;71.85;100621.88;5055085;28;20451;-70
2023/09/05 00:55:43;;;;;;;15.68;6.10;;;;;;;14.37;72.10;100619.44;5055798;28;20033;-65
2023/09/05 00:58:10;;;;;;;14.43;6.80;;;;;;;14.15;72.29;100594.31;5055713;28;20043;-65
2023/09/05 01:00:36;;;;;;;12.43;6.53;;;;;;;14.06;72.52;100573.56;5055636;28;20029;-64
2023/09/05 01:03:02;;;;;;;12.57;6.25;;;;;;;14.09;72.59;100583.19;5055598;28;20036;-64
2023/09/05 01:05:33;;;;;;;8.73;6.00;;;;;;;14.35;72.74;100630.38;5054546;28;20153;-66
2023/09/05 01:08:24;;;;;;;14.85;6.88;;;;;;;14.39;72.73;100622.88;5036732;28;20356;-64
2023/09/05 01:10:59;;;;;;;10.52;6.20;;;;;;;14.37;72.64;100630.22;5054738;28;20068;-65
2023/09/05 01:13:26;;;;;;;13.80;6.68;;;;;;;14.27;72.67;100626.59;5054556;28;20029;-64
2023/09/05 01:15:53;;;;;;;14.02;6.13;;;;;;;14.25;72.84;100628.59;5055054;28;20029;-65
2023/09/05 01:18:20;;;;;;;13.90;6.15;;;;;;;14.21;73.01;100627.97;5055633;28;20043;-67
2023/09/05 01:21:00;;;;;;;11.57;6.38;;;;;;;14.22;72.85;100632.38;5055745;28;20102;-64
2023/09/05 01:23:37;;;;;;;10.63;5.20;;;;;;;14.23;73.30;100627.81;5054594;28;20097;-64
2023/09/05 01:26:04;;;;;;;15.02;6.57;;;;;;;14.16;73.27;100628.34;5055043;28;20021;-65
2023/09/05 01:28:31;;;;;;;15.48;6.10;;;;;;;14.15;73.23;100631.19;5055411;28;20056;-65
2023/09/05 01:30:56;;;;;;;9.57;6.03;;;;;;;14.13;73.30;100627.75;5055493;28;20451;-70
2023/09/05 01:33:22;;;;;;;12.82;6.72;;;;;;;14.03;73.79;100609.66;5055288;28;20114;-65
2023/09/05 01:35:47;;;;;;;9.75;5.65;;;;;;;14.06;73.49;100617.47;5055071;28;20052;-65
2023/09/05 01:38:13;;;;;;;14.30;6.45;;;;;;;14.06;73.52;100624.72;5055401;28;20114;-66
2023/09/05 01:40:39;;;;;;;16.50;6.25;;;;;;;14.01;73.59;100617.00;5054107;28;20033;-65
2023/09/05 01:43:04;;;;;;;13.75;6.00;;;;;;;14.01;73.45;100625.09;5055011;28;20028;-64
2023/09/05 01:45:30;;;;;;;16.35;6.82;;;;;;;14.00;73.63;100625.22;5054502;28;20024;-65
2023/09/05 01:47:55;;;;;;;14.00;6.60;;;;;;;13.95;73.79;100611.28;5055002;28;20048;-65
2023/09/05 01:50:21;;;;;;;21.50;6.75;;;;;;;13.95;74.05;100628.28;5054956;28;20035;-67
2023/09/05 01:52:47;;;;;;;13.18;6.10;;;;;;;13.77;74.05;100607.28;5053928;28;20302;-64
2023/09/05 01:55:12;;;;;;;12.15;6.03;;;;;;;13.95;74.47;100635.50;5054084;28;20094;-67
2023/09/05 01:57:38;;;;;;;14.25;6.45;;;;;;;13.90;74.23;100617.91;5053545;28;20033;-65
2023/09/05 02:00:04;;;;;;;12.40;5.78;;;;;;;13.92;74.42;100624.00;5053772;28;20041;-65
2023/09/05 02:02:31;;;;;;;12.23;6.18;;;;;;;13.89;74.27;100616.19;5053538;28;20051;-64
2023/09/05 02:04:56;;;;;;;21.25;6.15;;;;;;;13.83;74.49;100619.38;5054757;28;20033;-64
2023/09/05 02:07:22;;;;;;;18.98;6.78;;;;;;;13.84;74.59;100618.41;5054774;28;20029;-64
2023/09/05 02:09:47;;;;;;;14.73;6.03;;;;;;;13.85;74.88;100633.56;5053320;28;20095;-63
2023/09/05 02:12:14;;;;;;;13.25;6.55;;;;;;;13.83;75.07;100634.66;5054486;28;20118;-64
2023/09/05 02:14:45;;;;;;;17.48;6.25;;;;;;;13.73;75.12;100621.97;5054459;28;20490;-65
2023/09/05 02:17:12;;;;;;;16.98;5.93;;;;;;;13.71;75.28;100629.31;5054276;28;20436;-65
2023/09/05 02:19:37;;;;;;;21.20;7.07;;;;;;;13.71;75.53;100644.59;5053049;28;20094;-65
2023/09/05 02:22:03;;;;;;;14.23;7.03;;;;;;;13.52;75.44;100604.88;5053077;28;20029;-66
2023/09/05 02:24:29;;;;;;;12.57;6.18;;;;;;;13.63;75.74;100627.25;5053260;28;20086;-65
2023/09/05 02:26:56;;;;;;;21.23;6.85;;;;;;;13.62;75.66;100640.81;5054305;28;20089;-64
2023/09/05 02:29:25;;;;;;;16.55;6.90;;;;;;;13.55;75.71;100621.63;5053283;28;20033;-65
2023/09/05 02:31:51;;;;;;;14.95;6.47;;;;;;;13.58;75.92;100634.84;5053337;28;20033;-65
2023/09/05 02:34:16;;;;;;;13.10;6.60;;;;;;;13.58;75.64;100650.97;5054130;28;20167;-64
2023/09/05 02:36:42;;;;;;;9.95;6.15;;;;;;;13.55;75.71;100640.47;5053924;28;20140;-64
2023/09/05 02:39:07;;;;;;;15.73;7.13;;;;;;;13.44;76.20;100629.69;5035869;28;20041;-64
2023/09/05 02:41:33;;;;;;;12.75;6.90;;;;;;;13.46;76.13;100627.72;5053790;28;20333;-65
2023/09/05 02:43:58;;;;;;;16.02;6.65;;;;;;;13.50;76.42;100642.66;5053938;28;20063;-66
2023/09/05 02:46:24;;;;;;;14.48;6.10;;;;;;;13.29;76.21;100610.22;5053956;28;20123;-68
2023/09/05 02:48:49;;;;;;;18.25;6.65;;;;;;;13.48;76.15;100636.53;5053708;28;20035;-65
2023/09/05 02:51:15;;;;;;;19.00;6.55;;;;;;;13.49;76.24;100646.31;5053829;28;20075;-65
2023/09/05 02:53:40;;;;;;;11.90;6.03;;;;;;;13.27;76.11;100614.88;5053552;28;20057;-64
2023/09/05 02:56:06;;;;;;;14.82;6.20;;;;;;;13.43;76.12;100638.75;5052898;28;20040;-65
2023/09/05 02:58:32;;;;;;;14.63;5.88;;;;;;;13.52;76.01;100645.22;5053420;28;20104;-65
2023/09/05 03:01:11;;;;;;;13.07;6.10;;;;;;;13.54;76.03;100654.03;5053582;28;20033;-65
2023/09/05 03:03:37;;;;;;;12.80;5.93;;;;;;;13.34;75.87;100616.97;5053105;28;20102;-65
2023/09/05 03:06:16;;;;;;;16.92;6.18;;;;;;;13.70;75.63;100654.53;5052756;28;20440;-66
2023/09/05 03:08:44;;;;;;;17.13;6.15;;;;;;;13.64;75.28;100652.34;5052744;28;20056;-65
2023/09/05 03:11:10;;;;;;;16.75;6.53;;;;;;;13.68;75.41;100655.59;5047694;28;20056;-65
2023/09/05 03:13:36;;;;;;;13.55;6.10;;;;;;;13.66;75.27;100644.97;5033641;28;20033;-64
2023/09/05 03:16:02;;;;;;;13.93;5.75;;;;;;;13.77;75.06;100657.56;5033442;28;20052;-65
2023/09/05 03:18:27;;;;;;;12.55;6.20;;;;;;;13.82;74.62;100658.06;5036494;28;20180;-64
2023/09/05 03:20:53;;;;;;;14.70;6.30;;;;;;;13.84;74.61;100650.72;5052991;28;20025;-64
2023/09/05 03:23:18;;;;;;;11.70;6.30;;;;;;;14.04;74.79;100653.59;5053549;28;20347;-66
2023/09/05 03:25:44;;;;;;;12.88;6.00;;;;;;;14.54;73.35;100654.91;5053077;28;20072;-65
2023/09/05 03:28:12;;;;;;;14.25;6.10;;;;;;;15.24;70.52;100649.88;5052848;28;20056;-66
2023/09/05 03:30:39;;;;;;;12.57;6.55;;;;;;;16.16;67.35;100660.72;5052991;28;20075;-65
2023/09/05 03:33:05;;;;;;;12.07;5.70;;;;;;;16.83;64.04;100624.84;5053227;28;20368;-65
2023/09/05 03:35:31;;;;;;;14.55;6.47;;;;;;;17.80;61.02;100636.34;5035596;28;20121;-66
2023/09/05 03:37:57;;;;;;;12.85;5.45;;;;;;;18.68;58.30;100643.00;5051936;28;20025;-66
2023/09/05 03:40:23;;;;;;;10.80;5.45;;;;;;;19.42;55.62;100641.81;5052621;28;20052;-65
2023/09/05 03:42:49;;;;;;;13.60;6.00;;;;;;;20.09;53.19;100638.38;5052104;28;20032;-65
2023/09/05 03:45:14;;;;;;;13.73;6.03;;;;;;;20.82;51.12;100646.75;5051569;28;20097;-66
2023/09/05 03:47:40;;;;;;;15.52;5.90;;;;;;;21.37;49.82;100644.31;5052582;28;20064;-66
2023/09/05 03:50:07;;;;;;;18.25;6.03;;;;;;;22.00;47.99;100646.28;5052314;28;20032;-68
2023/09/05 03:52:32;;;;;;;10.80;5.40;;;;;;;22.64;46.04;100639.69;5035312;28;20033;-64
2023/09/05 03:54:58;;;;;;;21.40;5.95;;;;;;;23.41;44.16;100643.25;5052804;28;20037;-67
2023/09/05 03:57:23;;;;;;;17.65;5.90;;;;;;;24.08;42.87;100640.50;5052842;28;20039;-67
2023/09/05 03:59:49;;;;;;;22.25;5.78;;;;;;;24.69;41.06;100646.59;5052236;28;20444;-64
2023/09/05 04:02:15;;;;;;;21.02;5.78;;;;;;;25.31;39.24;100644.97;5052717;28;20309;-65
2023/09/05 04:04:40;;;;;;;12.85;5.43;;;;;;;25.85;37.89;100641.69;5052825;28;20439;-65
2023/09/05 04:07:07;;;;;;;14.00;5.40;;;;;;;26.43;36.92;100641.22;5052416;28;20065;-65
2023/09/05 04:09:32;;;;;;;14.57;5.75;;;;;;;26.89;36.08;100627.75;5052026;28;20112;-64
2023/09/05 04:11:58;;;;;;;14.85;5.80;;;;;;;27.58;34.77;100642.00;5052214;28;20053;-74
2023/09/05 04:14:24;;;;;;;18.42;5.68;;;;;;;28.21;33.55;100629.47;5032951;28;20388;-64
2023/09/05 04:16:49;;;;;;;9.20;5.05;;;;;;;28.86;32.27;100644.03;5032473;28;20087;-64
2023/09/05 04:19:15;;;;;;;16.58;5.55;;;;;;;29.28;31.34;100632.38;5051615;28;20025;-64
2023/09/05 04:21:41;;;;;;;10.43;4.78;;;;;;;29.65;30.70;100613.06;5058797;28;20028;-65
2023/09/05 04:24:06;;;;;;;13.85;5.57;;;;;;;30.40;29.67;100639.69;5058786;28;20029;-66
2023/09/05 04:26:33;;;;;;;15.10;4.97;;;;;;;30.97;29.07;100641.94;5058971;28;20032;-66
2023/09/05 04:29:00;;;;;;;13.45;5.35;;;;;;;31.54;27.53;100640.47;5057668;28;20103;-74
2023/09/05 04:31:26;;;;;;;9.73;4.95;;;;;;;32.02;26.89;100632.88;5059085;28;20063;-64
2023/09/05 04:33:51;;;;;;;21.50;5.70;;;;;;;32.58;26.37;100634.16;5057705;28;20440;-65
2023/09/05 04:36:17;;;;;;;13.30;5.00;;;;;;;33.06;25.09;100637.41;5057550;28;20029;-64
2023/09/05 04:38:49;;;;;;;11.60;5.15;;;;;;;33.53;24.80;100641.72;5058133;28;20032;-64
2023/09/05 04:41:15;;;;;;;10.35;4.85;;;;;;;33.92;24.25;100610.22;5055054;28;20028;-65
2023/09/05 04:43:41;;;;;;;11.15;4.72;;;;;;;34.68;23.26;100636.25;5057703;28;20428;-64
2023/09/05 04:46:08;;;;;;;12.98;4.63;;;;;;;35.05;22.76;100638.22;5057774;28;20124;-64
2023/09/05 04:48:34;;;;;;;16.80;5.13;;;;;;;35.09;22.57;100615.41;5058322;28;20109;-65
2023/09/05 04:51:02;;;;;;;11.05;4.68;;;;;;;35.60;22.02;100643.53;5058271;28;20120;-64
2023/09/05 04:53:28;;;;;;;11.88;4.90;;;;;;;36.17;21.14;100646.50;5059179;28;20112;-64
2023/09/05 04:55:59;;;;;;;12.55;4.88;;;;;;;36.52;20.98;100641.25;5057338;28;20246;-66
2023/09/05 04:58:27;;;;;;;13.05;4.82;;;;;;;37.02;20.78;100661.03;5058193;28;20036;-65
2023/09/05 05:01:02;;;;;;;21.00;4.93;;;;;;;37.51;19.78;100647.53;5057560;28;20465;-65
2023/09/05 05:03:29;;;;;;;13.02;4.65;;;;;;;38.16;19.45;100668.16;5058982;28;20033;-64
2023/09/05 05:05:55;;;;;;;6.72;4.10;;;;;;;38.30;19.02;100631.97;5057205;28;20363;-66
2023/09/05 05:08:20;;;;;;;12.40;4.30;;;;;;;38.74;18.58;100661.03;5057391;28;20025;-65
2023/09/05 05:10:46;;;;;;;9.25;4.20;;;;;;;39.15;17.85;100662.59;5058272;28;20127;-64
2023/09/05 05:13:12;;;;;;;7.57;4.18;;;;;;;39.64;17.46;100645.81;5058394;28;20140;-63
2023/09/05 05:15:37;;;;;;;9.02;4.32;;;;;;;40.18;16.97;100652.88;5058497;28;20044;-63
2023/09/05 05:18:03;;;;;;;7.20;4.00;;;;;;;40.45;16.68;100659.78;5040822;28;20025;-65
2023/09/05 05:20:28;;;;;;;6.72;4.00;;;;;;;40.72;16.53;100658.22;5058806;28;20029;-64
2023/09/05 05:22:54;;;;;;;6.90;3.90;;;;;;;41.08;15.87;100653.09;5057620;28;20418;-64
2023/09/05 05:25:19;;;;;;;7.43;4.50;;;;;;;41.36;15.81;100648.34;5058319;28;20039;-64
2023/09/05 05:27:45;;;;;;;10.00;4.43;;;;;;;41.98;14.98;100651.78;5058013;28;20111;-67
2023/09/05 05:30:12;;;;;;;5.82;4.45;;;;;;;42.59;14.52;100643.03;5054362;28;20033;-65
2023/09/05 05:32:37;;;;;;;6.95;4.20;;;;;;;43.00;14.48;100655.19;5037725;28;20037;-65
2023/09/05 05:35:03;;;;;;;7.18;4.15;;;;;;;42.87;14.23;100651.31;5054936;28;20044;-74
2023/09/05 05:37:30;;;;;;;5.00;3.95;;;;;;;43.08;14.05;100653.56;5054405;28;20352;-66
2023/09/05 05:39:55;;;;;;;6.68;4.60;;;;;;;43.52;14.08;100657.38;5054034;28;20071;-66
2023/09/05 05:42:21;;;;;;;14.02;4.03;;;;;;;43.75;13.42;100646.00;5053559;28;20052;-65
2023/09/05 05:44:46;;;;;;;8.65;4.00;;;;;;;44.20;13.01;100646.88;5053597;28;20025;-65
2023/09/05 05:47:12;;;;;;;10.45;4.30;;;;;;;44.93;12.57;100646.09;5054515;28;20100;-66
2023/09/05 05:49:37;;;;;;;6.75;4.82;;;;;;;45.46;12.38;100645.84;5054053;28;20511;-65
2023/09/05 05:52:03;;;;;;;6.25;4.20;;;;;;;45.49;12.29;100642.31;5053978;28;20325;-66
2023/09/05 05:54:29;;;;;;;7.38;4.28;;;;;;;45.78;11.88;100645.50;5055055;28;20440;-65
2023/09/05 05:56:55;;;;;;;7.00;4.32;;;;;;;46.13;11.77;100648.88;5054513;28;20041;-65
2023/09/05 05:59:22;;;;;;;6.65;4.20;;;;;;;46.40;11.18;100626.81;5054720;28;20036;-65
2023/09/05 06:01:50;;;;;;;5.07;4.30;;;;;;;46.99;10.70;100641.00;5054536;28;20154;-66
2023/09/05 06:04:16;;;;;;;7.60;3.95;;;;;;;47.41;10.71;100635.09;5054380;28;20029;-64
2023/09/05 06:06:48;;;;;;;13.50;4.55;;;;;;;48.00;10.45;100647.03;5054510;28;20106;-65
2023/09/05 06:09:16;;;;;;;6.78;4.10;;;;;;;48.29;10.46;100638.53;5053222;28;20029;-66
2023/09/05 06:11:41;;;;;;;7.57;4.18;;;;;;;48.67;9.76;100627.81;5053790;28;20071;-65
2023/09/05 06:14:07;;;;;;;3.70;2.83;;;;;;;48.56;9.74;100621.84;5054416;28;20355;-66
2023/09/05 06:16:32;;;;;;;7.68;3.50;;;;;;;47.66;10.36;100611.56;5036642;28;20040;-65
2023/09/05 06:18:58;;;;;;;11.50;3.65;;;;;;;47.54;10.39;100627.41;5053906;28;20043;-66
2023/09/05 06:21:23;;;;;;;7.45;4.20;;;;;;;47.76;10.47;100621.56;5053229;28;20035;-65
2023/09/05 06:23:49;;;;;;;7.07;3.75;;;;;;;48.28;10.01;100609.31;5052989;28;20032;-69
2023/09/05 06:26:15;;;;;;;6.90;4.03;;;;;;;48.95;9.93;100618.38;5033222;28;20056;-72
2023/09/05 06:28:41;;;;;;;5.18;3.75;;;;;;;49.38;8.89;100593.84;5050885;28;20141;-73
2023/09/05 06:31:07;;;;;;;8.48;4.07;;;;;;;50.19;8.58;100616.28;5031777;28;20132;-73
2023/09/05 06:33:33;;;;;;;10.95;4.53;;;;;;;50.57;8.51;100608.84;5051752;28;20021;-73
2023/09/05 06:36:04;;;;;;;9.88;4.00;;;;;;;51.13;8.47;100629.38;5051705;28;20033;-72
2023/09/05 06:38:30;;;;;;;5.95;3.80;;;;;;;51.04;8.01;100597.44;5017094;28;20039;-72
2023/09/05 06:40:55;;;;;;;6.38;3.70;;;;;;;51.61;7.68;100623.13;5050819;28;20072;-72
2023/09/05 06:43:21;;;;;;;11.43;4.20;;;;;;;51.67;7.55;100618.75;5052108;28;20358;-72
2023/09/05 06:45:46;;;;;;;7.28;3.80;;;;;;;51.74;7.61;100612.31;5052323;28;20167;-71
2023/09/05 06:48:12;;;;;;;5.22;3.08;;;;;;;51.80;7.49;100609.94;5052938;28;20462;-72
2023/09/05 06:50:37;;;;;;;4.75;3.05;;;;;;;51.33;8.45;100609.28;5053162;28;20029;-71
2023/09/05 06:53:03;;;;;;;5.00;3.28;;;;;;;50.66;8.40;100597.22;5053155;28;20033;-72
2023/09/05 06:55:31;;;;;;;4.03;3.22;;;;;;;50.92;8.15;100593.59;5030394;28;20120;-72
2023/09/05 06:57:57;;;;;;;5.07;2.70;;;;;;;50.99;7.66;100598.59;5050896;28;20147;-74
2023/09/05 07:00:25;;;;;;;4.35;2.50;;;;;;;51.06;7.32;100593.00;5034599;28;20497;-67
2023/09/05 07:02:51;;;;;;;4.95;2.72;;;;;;;51.59;7.73;100599.03;5052202;28;20037;-70
2023/09/05 07:05:16;;;;;;;4.50;2.38;;;;;;;51.78;7.09;100600.94;5052096;28;20512;-68
2023/09/05 07:07:42;;;;;;;3.95;2.63;;;;;;;51.59;7.15;100594.16;5052009;28;20025;-69
2023/09/05 07:10:07;;;;;;;3.10;2.70;;;;;;;51.47;7.22;100595.22;5048810;28;20036;-70
2023/09/05 07:12:33;;;;;;;5.72;2.60;;;;;;;51.95;7.04;100593.81;5051521;28;20369;-71
2023/09/05 07:15:00;;;;;;;3.40;2.58;;;;;;;52.58;6.90;100588.34;5051540;28;20444;-70
2023/09/05 07:17:26;;;;;;;3.20;2.90;;;;;;;53.14;6.29;100579.81;5032410;28;20022;-72
2023/09/05 07:19:51;;;;;;;3.40;2.78;;;;;;;53.46;6.17;100581.22;5033653;28;20523;-70
2023/09/05 07:22:17;;;;;;;3.45;2.90;;;;;;;53.81;6.16;100592.00;5048856;28;20036;-71
2023/09/05 07:24:42;;;;;;;3.50;2.90;;;;;;;54.03;5.82;100591.28;5049785;28;20028;-71
2023/09/05 07:27:10;;;;;;;3.53;2.75;;;;;;;54.07;5.45;100563.44;5051494;28;20086;-70
2023/09/05 07:29:35;;;;;;;5.25;3.22;;;;;;;53.93;5.70;100559.31;5050575;28;20090;-76
2023/09/05 07:32:01;;;;;;;3.67;3.30;;;;;;;54.14;5.45;100574.91;5051078;28;20029;-78
2023/09/05 07:34:26;;;;;;;3.67;3.45;;;;;;;54.36;5.10;100578.66;5051778;28;20056;-76
2023/09/05 07:36:56;;;;;;;3.22;3.00;;;;;;;53.98;5.50;100583.84;5050845;28;20052;-72
2023/09/05 07:39:23;;;;;;;3.50;3.20;;;;;;;53.32;6.13;100581.94;5051911;28;20029;-72
2023/09/05 07:41:48;;;;;;;3.35;3.13;;;;;;;52.27;6.30;100573.34;5051565;28;20119;-74
2023/09/05 07:44:14;;;;;;;4.30;2.70;;;;;;;51.56;6.64;100566.41;5050513;28;20170;-72
2023/09/05 07:46:39;;;;;;;3.08;2.67;;;;;;;51.02;6.72;100559.94;5051546;28;20451;-70
2023/09/05 07:49:05;;;;;;;4.90;2.85;;;;;;;50.66;6.94;100548.78;5049466;28;20115;-71
2023/09/05 07:51:31;;;;;;;2.50;2.20;;;;;;;50.20;7.41;100546.72;5032126;28;20529;-72
2023/09/05 07:54:06;;;;;;;2.90;2.20;;;;;;;50.41;7.17;100550.00;5030871;28;20040;-73
2023/09/05 07:56:33;;;;;;;2.20;2.00;;;;;;;49.51;7.48;100549.03;5023536;28;20041;-69
2023/09/05 07:58:58;;;;;;;2.40;2.20;;;;;;;48.51;7.62;100534.06;5028193;28;20850;-70
2023/09/05 08:01:25;;;;;;;2.25;1.88;;;;;;;46.20;9.39;100537.09;5029380;28;20034;-69
2023/09/05 08:03:52;;;;;;;3.03;2.00;;;;;;;42.84;11.57;100536.47;5031134;28;20034;-70
2023/09/05 08:06:17;;;;;;;2.00;1.90;;;;;;;40.18;13.54;100531.47;5014370;28;20029;-73
2023/09/05 08:08:43;;;;;;;3.70;1.95;;;;;;;37.46;15.87;100535.81;5031233;28;20499;-68
2023/09/05 08:11:09;;;;;;;4.00;2.20;;;;;;;35.00;18.00;100521.34;5014711;28;20050;-69
2023/09/05 08:13:34;;;;;;;2.92;1.80;;;;;;;33.21;20.54;100523.91;5019296;28;20476;-71
2023/09/05 08:16:02;;;;;;;4.30;1.90;;;;;;;31.55;22.58;100531.44;5030331;28;20117;-69
2023/09/05 08:18:28;;;;;;;4.00;2.28;;;;;;;30.26;24.03;100537.69;5031627;28;20465;-70
2023/09/05 08:20:56;;;;;;;2.47;1.77;;;;;;;29.20;26.24;100533.44;5032029;28;20029;-69
2023/09/05 08:23:22;;;;;;;7.60;2.28;;;;;;;28.49;27.11;100520.78;5031343;28;20029;-72
2023/09/05 08:25:51;;;;;;;6.75;1.98;;;;;;;28.12;28.08;100522.56;5030520;28;20033;-71
2023/09/05 08:28:18;;;;;;;7.10;2.25;;;;;;;27.85;27.89;100537.34;5050660;28;20033;-69
2023/09/05 08:30:44;;;;;;;4.13;2.30;;;;;;;27.52;27.84;100524.63;5050893;28;20029;-69
2023/09/05 08:33:10;;;;;;;4.53;2.67;;;;;;;27.34;28.61;100520.66;5050810;28;20107;-71
2023/09/05 08:35:37;;;;;;;3.45;2.60;;;;;;;26.91;28.92;100485.50;5052178;28;20025;-70
2023/09/05 08:38:05;;;;;;;5.85;2.10;;;;;;;27.00;29.34;100530.09;5050527;28;20056;-69
2023/09/05 08:40:34;;;;;;;2.47;1.85;;;;;;;26.80;28.93;100534.53;5050855;28;20037;-70
2023/09/05 08:43:01;;;;;;;7.40;2.30;;;;;;;26.54;28.92;100535.41;5051534;28;20029;-70
2023/09/05 08:45:29;;;;;;;2.53;2.33;;;;;;;26.30;29.08;100525.94;5051915;28;20107;-70
2023/09/05 08:47:55;;;;;;;4.28;2.63;;;;;;;26.01;30.06;100531.56;5050441;28;20025;-71
2023/09/05 08:50:22;;;;;;;5.72;2.40;;;;;;;25.88;29.93;100523.31;5051436;28;20031;-71
2023/09/05 08:52:49;;;;;;;3.00;2.28;;;;;;;25.84;30.15;100519.28;5051995;28;20086;-71
2023/09/05 08:55:16;;;;;;;4.53;2.40;;;;;;;25.86;30.29;100515.31;5049304;28;20033;-70
2023/09/05 08:57:47;;;;;;;3.90;2.42;;;;;;;25.68;29.52;100517.78;5046516;28;20035;-70
2023/09/05 09:00:17;;;;;;;9.57;2.45;;;;;;;25.48;30.31;100518.56;5049855;28;20029;-70
2023/09/05 09:02:43;;;;;;;4.40;2.30;;;;;;;25.00;31.37;100478.31;5031577;28;20388;-77
2023/09/05 09:05:09;;;;;;;4.72;2.45;;;;;;;25.04;31.78;100513.28;5051819;28;20672;-73
2023/09/05 09:07:35;;;;;;;4.40;2.10;;;;;;;25.12;32.26;100508.72;5051557;28;20094;-78
2023/09/05 09:10:20;;;;;;;4.57;2.30;;;;;;;25.43;30.87;100524.63;5054596;28;20044;-78
2023/09/05 09:12:50;;;;;;;3.40;2.08;;;;;;;25.35;30.93;100487.31;5052734;28;20076;-75
2023/09/05 09:15:15;;;;;;;6.63;2.28;;;;;;;25.67;30.70;100505.13;5050220;28;20029;-75
2023/09/05 09:17:42;;;;;;;2.70;2.05;;;;;;;25.69;30.22;100486.56;5036211;28;20112;-75
2023/09/05 09:20:14;;;;;;;2.42;2.13;;;;;;;25.98;30.66;100509.19;5053462;28;20082;-74
2023/09/05 09:22:42;;;;;;;4.57;2.15;;;;;;;26.17;30.87;100508.41;5052108;28;20119;-76
2023/09/05 09:25:14;;;;;;;4.80;2.70;;;;;;;26.51;29.49;100514.69;5035623;28;20044;-76
2023/09/05 09:27:44;;;;;;;6.53;2.70;;;;;;;26.38;28.38;100476.28;5049772;28;20119;-73
2023/09/05 09:30:11;;;;;;;7.75;2.42;;;;;;;26.46;28.29;100458.75;5052693;28;20017;-73
2023/09/05 09:32:37;;;;;;;3.60;2.08;;;;;;;27.11;28.26;100509.34;5051022;28;20115;-74
2023/09/05 09:35:05;;;;;;;2.80;2.25;;;;;;;27.41;28.60;100515.13;5051465;28;20033;-72
2023/09/05 09:37:31;;;;;;;6.28;2.20;;;;;;;27.52;28.21;100499.88;5031296;28;20472;-74
2023/09/05 09:40:01;;;;;;;4.68;2.20;;;;;;;27.83;27.24;100506.44;5052727;28;20021;-76
2023/09/05 09:42:28;;;;;;;5.97;2.20;;;;;;;27.82;28.07;100499.25;5053198;28;20090;-75
2023/09/05 09:44:54;;;;;;;4.07;2.13;;;;;;;27.73;27.02;100500.56;5049659;28;20029;-77
2023/09/05 09:47:21;;;;;;;3.90;2.38;;;;;;;27.70;25.82;100507.38;5036343;28;20100;-72
2023/09/05 09:49:51;;;;;;;2.60;1.95;;;;;;;27.74;25.21;100514.13;5048638;28;20493;-73
2023/09/05 09:52:22;;;;;;;3.33;1.92;;;;;;;27.58;25.40;100477.00;5052773;28;20041;-76
2023/09/05 09:54:53;;;;;;;3.30;2.85;;;;;;;27.56;24.64;100500.25;5034439;28;20029;-74
2023/09/05 09:57:33;;;;;;;2.95;2.13;;;;;;;27.36;24.46;100502.03;5053502;28;20021;-77
2023/09/05 10:00:15;;;;;;;3.78;2.22;;;;;;;27.01;25.28;100493.31;5051023;28;20029;-77
2023/09/05 10:02:45;;;;;;;3.55;2.45;;;;;;;26.57;26.47;100493.78;5050807;28;20169;-68
2023/09/05 10:05:12;;;;;;;3.63;2.58;;;;;;;26.19;28.06;100494.47;5051663;28;20126;-73
2023/09/05 10:07:38;;;;;;;6.15;2.65;;;;;;;25.92;28.75;100484.28;5053069;28;20373;-75
2023/09/05 10:10:09;;;;;;;6.05;2.38;;;;;;;25.71;28.21;100481.72;5052083;28;20538;-70
2023/09/05 10:12:36;;;;;;;5.97;2.53;;;;;;;25.63;28.91;100482.75;5051493;28;20392;-70
2023/09/05 10:15:05;;;;;;;2.85;2.10;;;;;;;25.59;27.16;100482.34;5050293;28;20757;-69
2023/09/05 10:17:33;;;;;;;4.85;2.67;;;;;;;25.47;27.59;100478.50;5034910;28;20037;-72
2023/09/05 10:19:59;;;;;;;9.90;2.35;;;;;;;25.27;28.15;100478.41;5052238;28;20352;-70
2023/09/05 10:22:28;;;;;;;4.97;2.35;;;;;;;25.13;28.01;100469.31;5033264;28;20414;-70
2023/09/05 10:24:53;;;;;;;4.18;2.30;;;;;;;25.11;27.83;100474.16;5030794;28;20064;-72
2023/09/05 10:27:19;;;;;;;5.40;2.60;;;;;;;25.08;27.81;100481.72;5031774;28;20112;-71
2023/09/05 10:29:46;;;;;;;4.38;2.40;;;;;;;24.99;28.09;100484.84;5033673;28;20493;-69
2023/09/05 10:32:32;;;;;;;3.35;2.47;;;;;;;24.99;27.28;100482.94;5035519;28;20039;-71
2023/09/05 10:35:04;;;;;;;5.82;2.95;;;;;;;24.70;27.88;100467.56;5032494;28;20028;-72
2023/09/05 10:37:35;;;;;;;3.22;2.35;;;;;;;24.85;27.89;100482.03;5034373;28;20033;-70
2023/09/05 10:40:09;;;;;;;3.08;2.78;;;;;;;24.87;27.36;100479.91;5051287;28;20064;-68
2023/09/05 10:42:42;;;;;;;3.67;2.22;;;;;;;24.93;27.31;100472.81;5050801;28;20118;-65
2023/09/05 10:45:22;;;;;;;2.55;2.33;;;;;;;24.97;27.59;100471.34;5051882;28;20029;-70
2023/09/05 10:47:49;;;;;;;3.10;2.60;;;;;;;24.74;27.50;100466.97;5031749;28;20032;-69
2023/09/05 10:50:23;;;;;;;2.55;2.35;;;;;;;24.74;27.90;100458.75;5031840;28;20099;-67
2023/09/05 10:53:10;;;;;;;6.07;2.42;;;;;;;25.01;27.78;100458.09;5031968;28;20168;-68
2023/09/05 10:55:43;;;;;;;5.85;2.70;;;;;;;24.97;28.17;100457.63;5049488;28;20090;-68
2023/09/05 10:58:37;;;;;;;5.07;2.97;;;;;;;25.19;28.38;100454.78;5039537;28;20036;-69
2023/09/05 11:01:29;;;;;;;3.65;2.83;;;;;;;25.23;27.78;100454.19;5051130;28;20033;-67
2023/09/05 11:03:58;;;;;;;3.30;3.00;;;;;;;24.99;28.27;100450.06;5043701;28;20041;-67
2023/09/05 11:06:25;;;;;;;3.13;2.53;;;;;;;24.90;28.26;100445.81;5050828;28;20040;-70
2023/09/05 11:08:57;;;;;;;3.38;2.95;;;;;;;25.07;28.52;100460.00;5031604;28;20041;-67
2023/09/05 11:11:25;;;;;;;3.50;2.97;;;;;;;25.11;28.59;100441.28;5031724;28;20064;-68
2023/09/05 11:13:51;;;;;;;6.25;3.00;;;;;;;25.14;28.58;100440.84;5028133;28;20071;-68
2023/09/05 11:16:17;;;;;;;5.28;2.92;;;;;;;25.00;28.48;100429.84;5051058;28;20041;-69
2023/09/05 11:18:55;;;;;;;4.32;3.10;;;;;;;25.07;28.67;100435.34;5030780;28;20075;-71
2023/09/05 11:21:23;;;;;;;3.38;3.08;;;;;;;25.00;28.18;100409.84;5031713;28;20139;-71
2023/09/05 11:23:53;;;;;;;5.60;2.63;;;;;;;25.20;27.86;100429.94;5032710;28;20095;-68